sensor_id;sensor_type;location;lat;lon;timestamp;pressure;altitude;pressure_sealevel;temperature;humidity
62634;BME280;48704;50.534;6.442;2024-02-04T00:01:48;96352.31;;;6.10;100.00
62634;BME280;48704;50.534;6.442;2024-02-04T00:04:13;96353.88;;;6.11;100.00
62634;BME280;48704;50.534;6.442;2024-02-04T00:06:38;96348.91;;;6.02;100.00
62634;BME280;48704;50.534;6.442;2024-02-04T00:09:04;96351.19;;;6.07;100.00
62634;BME280;48704;50.534;6.442;2024-02-04T00:11:29;96339.34;;;6.07;100.00
62634;BME280;48704;50.534;6.442;2024-02-04T00:13:55;96336.56;;;6.07;100.00
62634;BME280;48704;50.534;6.442;2024-02-04T00:16:20;96346.50;;;6.04;100.00
62634;BME280;48704;50.534;6.442;2024-02-04T00:18:45;96344.94;;;6.03;100.00
62634;BME280;48704;50.534;6.442;2024-02-04T00:21:11;96348.84;;;6.06;100.00
62634;BME280;48704;50.534;6.442;2024-02-04T00:23:36;96341.66;;;6.08;100.00
62634;BME280;48704;50.534;6.442;2024-02-04T00:26:01;96342.09;;;6.07;100.00
62634;BME280;48704;50.534;6.442;2024-02-04T00:28:27;96338.47;;;6.10;100.00
62634;BME280;48704;50.534;6.442;2024-02-04T00:30:53;96334.50;;;6.11;100.00
62634;BME280;48704;50.534;6.442;2024-02-04T00:33:21;96328.97;;;6.11;100.00
62634;BME280;48704;50.534;6.442;2024-02-04T00:35:46;96333.03;;;6.06;100.00
62634;BME280;48704;50.534;6.442;2024-02-04T00:38:12;96342.44;;;6.09;100.00
62634;BME280;48704;50.534;6.442;2024-02-04T00:40:37;96336.06;;;6.12;100.00
62634;BME280;48704;50.534;6.442;2024-02-04T00:43:02;96345.84;;;6.16;100.00
62634;BME280;48704;50.534;6.442;2024-02-04T00:45:28;96340.31;;;6.16;100.00
62634;BME280;48704;50.534;6.442;2024-02-04T00:47:53;96344.72;;;6.14;100.00
62634;BME280;48704;50.534;6.442;2024-02-04T00:50:18;96343.16;;;6.13;100.00
62634;BME280;48704;50.534;6.442;2024-02-04T00:52:43;96339.59;;;6.12;100.00
62634;BME280;48704;50.534;6.442;2024-02-04T00:55:09;96342.38;;;6.12;100.00
62634;BME280;48704;50.534;6.442;2024-02-04T00:57:34;96336.13;;;6.08;100.00
62634;BME280;48704;50.534;6.442;2024-02-04T00:59:59;96335.28;;;6.11;100.00
62634;BME280;48704;50.534;6.442;2024-02-04T01:02:25;96333.28;;;6.12;100.00
62634;BME280;48704;50.534;6.442;2024-02-04T01:04:50;96326.63;;;6.09;100.00
62634;BME280;48704;50.534;6.442;2024-02-04T01:07:16;96321.88;;;6.10;100.00
62634;BME280;48704;50.534;6.442;2024-02-04T01:09:41;96328.97;;;6.11;100.00
62634;BME280;48704;50.534;6.442;2024-02-04T01:12:07;96334.50;;;6.11;100.00
62634;BME280;48704;50.534;6.442;2024-02-04T01:14:33;96325.84;;;6.09;100.00
62634;BME280;48704;50.534;6.442;2024-02-04T01:16:58;96332.09;;;6.13;100.00
62634;BME280;48704;50.534;6.442;2024-02-04T01:19:23;96337.63;;;6.13;100.00
62634;BME280;48704;50.534;6.442;2024-02-04T01:21:49;96341.94;;;6.14;100.00
62634;BME280;48704;50.534;6.442;2024-02-04T01:24:14;96332.44;;;6.15;100.00
62634;BME280;48704;50.534;6.442;2024-02-04T01:26:39;96330.44;;;6.15;100.00
62634;BME280;48704;50.534;6.442;2024-02-04T01:29:04;96331.66;;;6.14;100.00
62634;BME280;48704;50.534;6.442;2024-02-04T01:31:30;96335.19;;;6.15;100.00
62634;BME280;48704;50.534;6.442;2024-02-04T01:33:55;96334.00;;;6.16;100.00
62634;BME280;48704;50.534;6.442;2024-02-04T01:36:20;96328.81;;;6.18;100.00
62634;BME280;48704;50.534;6.442;2024-02-04T01:38:45;96336.25;;;6.21;100.00
62634;BME280;48704;50.534;6.442;2024-02-04T01:41:11;96328.72;;;6.21;100.00
62634;BME280;48704;50.534;6.442;2024-02-04T01:43:36;96325.19;;;6.21;100.00
62634;BME280;48704;50.534;6.442;2024-02-04T01:46:01;96333.47;;;6.21;100.00
62634;BME280;48704;50.534;6.442;2024-02-04T01:48:27;96336.59;;;6.23;100.00
62634;BME280;48704;50.534;6.442;2024-02-04T01:50:54;96333.06;;;6.22;100.00
62634;BME280;48704;50.534;6.442;2024-02-04T01:53:22;96325.53;;;6.23;100.00
62634;BME280;48704;50.534;6.442;2024-02-04T01:55:48;96321.56;;;6.24;100.00
62634;BME280;48704;50.534;6.442;2024-02-04T01:58:14;96325.53;;;6.23;100.00
62634;BME280;48704;50.534;6.442;2024-02-04T02:00:40;96329.41;;;6.25;100.00
62634;BME280;48704;50.534;6.442;2024-02-04T02:03:06;96322.34;;;6.24;100.00
62634;BME280;48704;50.534;6.442;2024-02-04T02:05:33;96308.06;;;6.26;100.00
62634;BME280;48704;50.534;6.442;2024-02-04T02:07:59;96305.66;;;6.28;100.00
62634;BME280;48704;50.534;6.442;2024-02-04T02:10:24;96309.19;;;6.28;100.00
62634;BME280;48704;50.534;6.442;2024-02-04T02:13:14;96311.19;;;6.28;100.00
62634;BME280;48704;50.534;6.442;2024-02-04T02:15:44;96311.69;;;6.23;100.00
62634;BME280;48704;50.534;6.442;2024-02-04T02:18:14;96306.41;;;6.28;100.00
62634;BME280;48704;50.534;6.442;2024-02-04T02:20:54;96296.78;;;6.33;100.00
62634;BME280;48704;50.534;6.442;2024-02-04T02:23:30;96317.06;;;6.30;100.00
62634;BME280;48704;50.534;6.442;2024-02-04T02:25:55;96309.06;;;6.32;100.00
62634;BME280;48704;50.534;6.442;2024-02-04T02:28:21;96301.91;;;6.34;100.00
62634;BME280;48704;50.534;6.442;2024-02-04T02:30:46;96314.19;;;6.33;100.00
62634;BME280;48704;50.534;6.442;2024-02-04T02:33:11;96308.22;;;6.35;100.00
62634;BME280;48704;50.534;6.442;2024-02-04T02:35:36;96306.66;;;6.34;100.00
62634;BME280;48704;50.534;6.442;2024-02-04T02:38:25;96311.75;;;6.35;100.00
62634;BME280;48704;50.534;6.442;2024-02-04T02:40:54;96311.69;;;6.39;100.00
62634;BME280;48704;50.534;6.442;2024-02-04T02:43:23;96307.69;;;6.40;100.00
62634;BME280;48704;50.534;6.442;2024-02-04T02:45:49;96309.25;;;6.41;100.00
62634;BME280;48704;50.534;6.442;2024-02-04T02:48:15;96307.34;;;6.38;100.00
62634;BME280;48704;50.534;6.442;2024-02-04T02:50:41;96318.50;;;6.34;100.00
62634;BME280;48704;50.534;6.442;2024-02-04T02:53:06;96310.47;;;6.40;100.00
62634;BME280;48704;50.534;6.442;2024-02-04T02:55:31;96317.13;;;6.43;100.00
62634;BME280;48704;50.534;6.442;2024-02-04T02:57:56;96313.16;;;6.44;100.00
62634;BME280;48704;50.534;6.442;2024-02-04T03:00:22;96311.16;;;6.44;100.00
62634;BME280;48704;50.534;6.442;2024-02-04T03:02:47;96306.06;;;6.43;100.00
62634;BME280;48704;50.534;6.442;2024-02-04T03:05:13;96304.41;;;6.45;100.00
62634;BME280;48704;50.534;6.442;2024-02-04T03:07:40;96306.84;;;6.43;100.00
62634;BME280;48704;50.534;6.442;2024-02-04T03:10:05;96302.84;;;6.44;100.00
62634;BME280;48704;50.534;6.442;2024-02-04T03:12:31;96319.47;;;6.44;100.00
62634;BME280;48704;50.534;6.442;2024-02-04T03:14:56;96303.19;;;6.46;100.00
62634;BME280;48704;50.534;6.442;2024-02-04T03:17:21;96304.41;;;6.45;100.00
62634;BME280;48704;50.534;6.442;2024-02-04T03:19:48;96294.53;;;6.44;100.00
62634;BME280;48704;50.534;6.442;2024-02-04T03:22:14;96286.94;;;6.48;100.00
62634;BME280;48704;50.534;6.442;2024-02-04T03:24:39;96288.50;;;6.49;100.00
62634;BME280;48704;50.534;6.442;2024-02-04T03:27:04;96295.59;;;6.50;100.00
62634;BME280;48704;50.534;6.442;2024-02-04T03:29:29;96304.25;;;6.52;100.00
62634;BME280;48704;50.534;6.442;2024-02-04T03:31:57;96294.03;;;6.49;100.00
62634;BME280;48704;50.534;6.442;2024-02-04T03:34:23;96295.59;;;6.50;100.00
62634;BME280;48704;50.534;6.442;2024-02-04T03:36:48;96305.09;;;6.49;100.00
62634;BME280;48704;50.534;6.442;2024-02-04T03:39:13;96302.34;;;6.49;100.00
62634;BME280;48704;50.534;6.442;2024-02-04T03:41:39;96307.88;;;6.49;100.00
62634;BME280;48704;50.534;6.442;2024-02-04T03:44:04;96294.03;;;6.49;100.00
62634;BME280;48704;50.534;6.442;2024-02-04T03:46:30;96299.56;;;6.49;100.00
62634;BME280;48704;50.534;6.442;2024-02-04T03:48:55;96289.28;;;6.50;100.00
62634;BME280;48704;50.534;6.442;2024-02-04T03:51:20;96302.00;;;6.47;100.00
62634;BME280;48704;50.534;6.442;2024-02-04T03:53:47;96303.53;;;6.48;100.00
62634;BME280;48704;50.534;6.442;2024-02-04T03:56:13;96298.00;;;6.48;100.00
62634;BME280;48704;50.534;6.442;2024-02-04T03:58:38;96295.59;;;6.50;100.00
62634;BME280;48704;50.534;6.442;2024-02-04T04:01:04;96303.53;;;6.48;100.00
62634;BME280;48704;50.534;6.442;2024-02-04T04:03:29;96309.88;;;6.49;100.00
62634;BME280;48704;50.534;6.442;2024-02-04T04:05:55;96312.19;;;6.50;100.00
62634;BME280;48704;50.534;6.442;2024-02-04T04:08:20;96292.13;;;6.46;100.00
62634;BME280;48704;50.534;6.442;2024-02-04T04:10:46;96291.25;;;6.49;100.00
62634;BME280;48704;50.534;6.442;2024-02-04T04:13:12;96275.88;;;6.48;100.00
62634;BME280;48704;50.534;6.442;2024-02-04T04:15:37;96280.63;;;6.48;100.00
62634;BME280;48704;50.534;6.442;2024-02-04T04:18:03;96281.41;;;6.48;100.00
62634;BME280;48704;50.534;6.442;2024-02-04T04:20:28;96283.81;;;6.46;100.00
62634;BME280;48704;50.534;6.442;2024-02-04T04:22:54;96303.53;;;6.48;100.00
62634;BME280;48704;50.534;6.442;2024-02-04T04:25:19;96285.38;;;6.47;100.00
62634;BME280;48704;50.534;6.442;2024-02-04T04:27:44;96266.34;;;6.49;100.00
62634;BME280;48704;50.534;6.442;2024-02-04T04:30:10;96282.53;;;6.51;100.00
62634;BME280;48704;50.534;6.442;2024-02-04T04:32:35;96281.31;;;6.52;100.00
62634;BME280;48704;50.534;6.442;2024-02-04T04:35:00;96291.59;;;6.51;100.00
62634;BME280;48704;50.534;6.442;2024-02-04T04:37:26;96285.19;;;6.54;100.00
62634;BME280;48704;50.534;6.442;2024-02-04T04:39:51;96279.66;;;6.54;100.00
62634;BME280;48704;50.534;6.442;2024-02-04T04:42:16;96288.31;;;6.56;100.00
62634;BME280;48704;50.534;6.442;2024-02-04T04:44:41;96292.31;;;6.55;100.00
62634;BME280;48704;50.534;6.442;2024-02-04T04:47:07;96285.56;;;6.56;100.00
62634;BME280;48704;50.534;6.442;2024-02-04T04:49:32;96288.41;;;6.53;100.00
62634;BME280;48704;50.534;6.442;2024-02-04T04:51:57;96275.69;;;6.55;100.00
62634;BME280;48704;50.534;6.442;2024-02-04T04:54:23;96281.22;;;6.55;100.00
62634;BME280;48704;50.534;6.442;2024-02-04T04:56:48;96283.56;;;6.57;100.00
62634;BME280;48704;50.534;6.442;2024-02-04T04:59:15;96295.94;;;6.52;100.00
62634;BME280;48704;50.534;6.442;2024-02-04T05:01:47;96289.19;;;6.53;100.00
62634;BME280;48704;50.534;6.442;2024-02-04T05:04:13;96300.25;;;6.53;100.00
62634;BME280;48704;50.534;6.442;2024-02-04T05:06:38;96297.84;;;6.55;100.00
62634;BME280;48704;50.534;6.442;2024-02-04T05:09:03;96304.94;;;6.56;100.00
62634;BME280;48704;50.534;6.442;2024-02-04T05:11:29;96308.91;;;6.55;100.00
62634;BME280;48704;50.534;6.442;2024-02-04T05:13:54;96316.53;;;6.51;100.00
62634;BME280;48704;50.534;6.442;2024-02-04T05:16:19;96293.16;;;6.52;100.00
62634;BME280;48704;50.534;6.442;2024-02-04T05:18:45;96305.78;;;6.53;100.00
62634;BME280;48704;50.534;6.442;2024-02-04T05:21:10;96310.56;;;6.53;100.00
62634;BME280;48704;50.534;6.442;2024-02-04T05:23:36;96294.72;;;6.53;100.00
62634;BME280;48704;50.534;6.442;2024-02-04T05:26:04;96302.25;;;6.53;100.00
62634;BME280;48704;50.534;6.442;2024-02-04T05:28:30;96295.50;;;6.54;100.00
62634;BME280;48704;50.534;6.442;2024-02-04T05:30:56;96282.09;;;6.52;100.00
62634;BME280;48704;50.534;6.442;2024-02-04T05:33:21;96291.59;;;6.51;100.00
62634;BME280;48704;50.534;6.442;2024-02-04T05:35:46;96274.13;;;6.54;100.00
62634;BME280;48704;50.534;6.442;2024-02-04T05:38:11;96258.38;;;6.51;100.00
62634;BME280;48704;50.534;6.442;2024-02-04T05:40:37;96252.50;;;6.49;100.00
62634;BME280;48704;50.534;6.442;2024-02-04T05:43:02;96249.72;;;6.49;100.00
62634;BME280;48704;50.534;6.442;2024-02-04T05:45:31;96250.84;;;6.52;100.00
62634;BME280;48704;50.534;6.442;2024-02-04T05:47:56;96241.88;;;6.48;100.00
62634;BME280;48704;50.534;6.442;2024-02-04T05:50:22;96248.94;;;6.49;100.00
62634;BME280;48704;50.534;6.442;2024-02-04T05:52:47;96250.50;;;6.50;100.00
62634;BME280;48704;50.534;6.442;2024-02-04T05:55:14;96248.19;;;6.48;100.00
62634;BME280;48704;50.534;6.442;2024-02-04T05:57:39;96250.59;;;6.46;100.00
62634;BME280;48704;50.534;6.442;2024-02-04T06:00:05;96249.03;;;6.45;100.00
62634;BME280;48704;50.534;6.442;2024-02-04T06:02:31;96259.69;;;6.47;100.00
62634;BME280;48704;50.534;6.442;2024-02-04T06:04:56;96254.16;;;6.47;100.00
62634;BME280;48704;50.534;6.442;2024-02-04T06:07:22;96253.88;;;6.41;100.00
62634;BME280;48704;50.534;6.442;2024-02-04T06:09:47;96250.69;;;6.43;100.00
62634;BME280;48704;50.534;6.442;2024-02-04T06:12:12;96254.59;;;6.45;100.00
62634;BME280;48704;50.534;6.442;2024-02-04T06:14:37;96248.69;;;6.43;100.00
62634;BME280;48704;50.534;6.442;2024-02-04T06:17:05;96245.59;;;6.41;100.00
62634;BME280;48704;50.534;6.442;2024-02-04T06:19:30;96243.69;;;6.38;100.00
62634;BME280;48704;50.534;6.442;2024-02-04T06:21:55;96261.06;;;6.38;100.00
62634;BME280;48704;50.534;6.442;2024-02-04T06:24:21;96259.09;;;6.39;100.00
62634;BME280;48704;50.534;6.442;2024-02-04T06:26:46;96261.41;;;6.41;100.00
62634;BME280;48704;50.534;6.442;2024-02-04T06:29:11;96264.19;;;6.41;100.00
62634;BME280;48704;50.534;6.442;2024-02-04T06:31:37;96252.34;;;6.40;100.00
62634;BME280;48704;50.534;6.442;2024-02-04T06:34:02;96253.53;;;6.39;100.00
62634;BME280;48704;50.534;6.442;2024-02-04T06:36:27;96262.28;;;6.37;100.00
62634;BME280;48704;50.534;6.442;2024-02-04T06:38:53;96250.78;;;6.39;100.00
62634;BME280;48704;50.534;6.442;2024-02-04T06:41:18;96239.00;;;6.35;100.00
62634;BME280;48704;50.534;6.442;2024-02-04T06:43:43;96230.28;;;6.36;100.00
62634;BME280;48704;50.534;6.442;2024-02-04T06:46:08;96230.28;;;6.36;100.00
62634;BME280;48704;50.534;6.442;2024-02-04T06:48:34;96225.72;;;6.30;100.00
62634;BME280;48704;50.534;6.442;2024-02-04T06:50:59;96231.84;;;6.37;100.00
62634;BME280;48704;50.534;6.442;2024-02-04T06:53:24;96234.16;;;6.39;100.00
62634;BME280;48704;50.534;6.442;2024-02-04T06:55:50;96219.13;;;6.40;100.00
62634;BME280;48704;50.534;6.442;2024-02-04T06:58:15;96237.38;;;6.37;100.00
62634;BME280;48704;50.534;6.442;2024-02-04T07:00:40;96226.28;;;6.37;100.00
62634;BME280;48704;50.534;6.442;2024-02-04T07:03:05;96231.06;;;6.37;100.00
62634;BME280;48704;50.534;6.442;2024-02-04T07:05:31;96227.06;;;6.38;100.00
62634;BME280;48704;50.534;6.442;2024-02-04T07:07:58;96231.84;;;6.37;100.00
62634;BME280;48704;50.534;6.442;2024-02-04T07:10:23;96226.28;;;6.37;100.00
62634;BME280;48704;50.534;6.442;2024-02-04T07:12:48;96239.00;;;6.35;100.00
62634;BME280;48704;50.534;6.442;2024-02-04T07:15:14;96228.72;;;6.35;100.00
62634;BME280;48704;50.534;6.442;2024-02-04T07:17:39;96237.03;;;6.35;100.00
62634;BME280;48704;50.534;6.442;2024-02-04T07:20:05;96242.91;;;6.37;100.00
62634;BME280;48704;50.534;6.442;2024-02-04T07:22:30;96238.16;;;6.38;100.00
62634;BME280;48704;50.534;6.442;2024-02-04T07:24:56;96233.31;;;6.42;100.00
62634;BME280;48704;50.534;6.442;2024-02-04T07:27:21;96235.63;;;6.44;100.00
62634;BME280;48704;50.534;6.442;2024-02-04T07:29:47;96226.91;;;6.45;100.00
62634;BME280;48704;50.534;6.442;2024-02-04T07:32:12;96239.97;;;6.45;100.00
62634;BME280;48704;50.534;6.442;2024-02-04T07:34:38;96249.81;;;6.46;100.00
62634;BME280;48704;50.534;6.442;2024-02-04T07:37:03;96228.44;;;6.46;100.00
62634;BME280;48704;50.534;6.442;2024-02-04T07:39:28;96222.22;;;6.42;100.00
62634;BME280;48704;50.534;6.442;2024-02-04T07:41:55;96238.31;;;6.47;100.00
62634;BME280;48704;50.534;6.442;2024-02-04T07:44:21;96235.88;;;6.49;100.00
62634;BME280;48704;50.534;6.442;2024-02-04T07:46:49;96225.16;;;6.51;100.00
62634;BME280;48704;50.534;6.442;2024-02-04T07:49:14;96222.75;;;6.53;100.00
62634;BME280;48704;50.534;6.442;2024-02-04T07:51:39;96240.91;;;6.54;100.00
62634;BME280;48704;50.534;6.442;2024-02-04T07:54:05;96239.69;;;6.55;100.00
62634;BME280;48704;50.534;6.442;2024-02-04T07:56:30;96253.53;;;6.55;100.00
62634;BME280;48704;50.534;6.442;2024-02-04T07:58:56;96251.97;;;6.54;100.00
62634;BME280;48704;50.534;6.442;2024-02-04T08:01:21;96244.38;;;6.58;100.00
62634;BME280;48704;50.534;6.442;2024-02-04T08:03:49;96240.38;;;6.59;100.00
62634;BME280;48704;50.534;6.442;2024-02-04T08:06:14;96246.78;;;6.56;100.00
62634;BME280;48704;50.534;6.442;2024-02-04T08:08:39;96246.78;;;6.56;100.00
62634;BME280;48704;50.534;6.442;2024-02-04T08:11:06;96253.34;;;6.62;100.00
62634;BME280;48704;50.534;6.442;2024-02-04T08:13:31;96247.72;;;6.66;100.00
62634;BME280;48704;50.534;6.442;2024-02-04T08:15:56;96244.53;;;6.67;100.00
62634;BME280;48704;50.534;6.442;2024-02-04T08:18:21;96229.13;;;6.66;100.00
62634;BME280;48704;50.534;6.442;2024-02-04T08:20:47;96226.66;;;6.68;100.00
62634;BME280;48704;50.534;6.442;2024-02-04T08:23:12;96231.88;;;6.66;100.00
62634;BME280;48704;50.534;6.442;2024-02-04T08:25:37;96241.41;;;6.65;100.00
62634;BME280;48704;50.534;6.442;2024-02-04T08:28:03;96233.44;;;6.67;100.00
62634;BME280;48704;50.534;6.442;2024-02-04T08:30:28;96244.31;;;6.75;100.00
62634;BME280;48704;50.534;6.442;2024-02-04T08:32:53;96232.88;;;6.72;100.00
62634;BME280;48704;50.534;6.442;2024-02-04T08:35:19;96240.66;;;6.78;100.00
62634;BME280;48704;50.534;6.442;2024-02-04T08:37:44;96230.91;;;6.73;100.00
62634;BME280;48704;50.534;6.442;2024-02-04T08:40:09;96221.28;;;6.78;100.00
62634;BME280;48704;50.534;6.442;2024-02-04T08:42:35;96229.59;;;6.78;100.00
62634;BME280;48704;50.534;6.442;2024-02-04T08:45:00;96235.72;;;6.85;100.00
62634;BME280;48704;50.534;6.442;2024-02-04T08:47:26;96230.41;;;6.91;100.00
62634;BME280;48704;50.534;6.442;2024-02-04T08:49:51;96247.81;;;6.91;100.00
62634;BME280;48704;50.534;6.442;2024-02-04T08:52:16;96217.97;;;6.83;100.00
62634;BME280;48704;50.534;6.442;2024-02-04T08:54:42;96236.94;;;6.84;100.00
62634;BME280;48704;50.534;6.442;2024-02-04T08:57:07;96243.94;;;6.89;100.00
62634;BME280;48704;50.534;6.442;2024-02-04T08:59:32;96224.88;;;6.91;100.00
62634;BME280;48704;50.534;6.442;2024-02-04T09:01:58;96230.41;;;6.91;100.00
62634;BME280;48704;50.534;6.442;2024-02-04T09:04:23;96228.88;;;6.90;100.00
62634;BME280;48704;50.534;6.442;2024-02-04T09:06:48;96225.22;;;6.93;100.00
62634;BME280;48704;50.534;6.442;2024-02-04T09:09:13;96215.34;;;6.92;100.00
62634;BME280;48704;50.534;6.442;2024-02-04T09:11:39;96229.97;;;6.92;100.00
62634;BME280;48704;50.534;6.442;2024-02-04T09:14:04;96217.78;;;6.90;100.00
62634;BME280;48704;50.534;6.442;2024-02-04T09:16:29;96226.63;;;6.85;100.00
62634;BME280;48704;50.534;6.442;2024-02-04T09:18:55;96228.88;;;6.90;100.00
62634;BME280;48704;50.534;6.442;2024-02-04T09:21:20;96235.63;;;6.89;100.00
62634;BME280;48704;50.534;6.442;2024-02-04T09:23:47;96236.84;;;6.88;100.00
62634;BME280;48704;50.534;6.442;2024-02-04T09:26:12;96238.72;;;6.91;100.00
62634;BME280;48704;50.534;6.442;2024-02-04T09:28:37;96238.38;;;6.89;100.00
62634;BME280;48704;50.534;6.442;2024-02-04T09:31:03;96245.19;;;7.00;100.00
62634;BME280;48704;50.534;6.442;2024-02-04T09:33:28;96248.75;;;7.01;100.00
62634;BME280;48704;50.534;6.442;2024-02-04T09:35:53;96255.41;;;7.03;100.00
62634;BME280;48704;50.534;6.442;2024-02-04T09:38:19;96261.03;;;7.00;100.00
62634;BME280;48704;50.534;6.442;2024-02-04T09:40:45;96276.13;;;6.99;100.00
62634;BME280;48704;50.534;6.442;2024-02-04T09:43:10;96284.78;;;7.01;100.00
62634;BME280;48704;50.534;6.442;2024-02-04T09:45:36;96272.13;;;7.00;100.00
62634;BME280;48704;50.534;6.442;2024-02-04T09:48:02;96287.66;;;7.10;100.00
62634;BME280;48704;50.534;6.442;2024-02-04T09:50:28;96286.53;;;7.08;100.00
62634;BME280;48704;50.534;6.442;2024-02-04T09:52:57;96280.56;;;7.09;100.00
62634;BME280;48704;50.534;6.442;2024-02-04T09:55:24;96274.81;;;7.16;100.00
62634;BME280;48704;50.534;6.442;2024-02-04T09:57:50;96283.69;;;7.11;100.00
62634;BME280;48704;50.534;6.442;2024-02-04T10:00:18;96268.59;;;7.12;100.00
62634;BME280;48704;50.534;6.442;2024-02-04T10:02:45;96274.63;;;7.23;100.00
62634;BME280;48704;50.534;6.442;2024-02-04T10:05:10;96270.66;;;7.24;100.00
62634;BME280;48704;50.534;6.442;2024-02-04T10:07:36;96280.50;;;7.25;100.00
62634;BME280;48704;50.534;6.442;2024-02-04T10:10:01;96284.84;;;7.26;100.00
62634;BME280;48704;50.534;6.442;2024-02-04T10:12:27;96287.81;;;7.19;100.00
62634;BME280;48704;50.534;6.442;2024-02-04T10:14:52;96268.06;;;7.17;100.00
62634;BME280;48704;50.534;6.442;2024-02-04T10:17:18;96259.56;;;7.24;100.00
62634;BME280;48704;50.534;6.442;2024-02-04T10:19:47;96253.72;;;7.35;100.00
62634;BME280;48704;50.534;6.442;2024-02-04T10:22:12;96242.28;;;7.46;100.00
62634;BME280;48704;50.534;6.442;2024-02-04T10:24:37;96229.63;;;7.45;100.00
62634;BME280;48704;50.534;6.442;2024-02-04T10:27:03;96228.66;;;7.51;100.00
62634;BME280;48704;50.534;6.442;2024-02-04T10:29:29;96234.44;;;7.57;100.00
62634;BME280;48704;50.534;6.442;2024-02-04T10:31:55;96245.88;;;7.59;100.00
62634;BME280;48704;50.534;6.442;2024-02-04T10:34:21;96240.53;;;7.52;100.00
62634;BME280;48704;50.534;6.442;2024-02-04T10:36:47;96258.63;;;7.69;100.00
62634;BME280;48704;50.534;6.442;2024-02-04T10:39:12;96248.00;;;7.67;100.00
62634;BME280;48704;50.534;6.442;2024-02-04T10:41:49;96243.97;;;7.56;100.00
62634;BME280;48704;50.534;6.442;2024-02-04T10:44:16;96252.97;;;7.60;100.00
62634;BME280;48704;50.534;6.442;2024-02-04T10:46:46;96246.53;;;7.63;100.00
62634;BME280;48704;50.534;6.442;2024-02-04T10:49:14;96255.16;;;7.52;100.00
62634;BME280;48704;50.534;6.442;2024-02-04T10:51:41;96238.19;;;7.37;100.00
62634;BME280;48704;50.534;6.442;2024-02-04T10:54:06;96258.72;;;7.40;100.00
62634;BME280;48704;50.534;6.442;2024-02-04T10:56:43;96250.41;;;7.40;100.00
62634;BME280;48704;50.534;6.442;2024-02-04T10:59:10;96236.75;;;7.33;100.00
62634;BME280;48704;50.534;6.442;2024-02-04T11:01:38;96239.50;;;7.33;100.00
62634;BME280;48704;50.534;6.442;2024-02-04T11:04:04;96246.50;;;7.37;100.00
62634;BME280;48704;50.534;6.442;2024-02-04T11:06:30;96255.59;;;7.38;100.00
62634;BME280;48704;50.534;6.442;2024-02-04T11:08:56;96256.25;;;7.29;100.00
62634;BME280;48704;50.534;6.442;2024-02-04T11:11:23;96237.28;;;7.28;100.00
62634;BME280;48704;50.534;6.442;2024-02-04T11:13:50;96242.03;;;7.27;100.00
62634;BME280;48704;50.534;6.442;2024-02-04T11:25:36;96249.00;;;7.19;100.00
62634;BME280;48704;50.534;6.442;2024-02-04T11:28:04;96247.00;;;7.20;100.00
62634;BME280;48704;50.534;6.442;2024-02-04T11:30:34;96234.47;;;7.15;100.00
62634;BME280;48704;50.534;6.442;2024-02-04T11:33:01;96236.91;;;7.13;100.00
62634;BME280;48704;50.534;6.442;2024-02-04T11:35:26;96232.03;;;7.17;100.00
62634;BME280;48704;50.534;6.442;2024-02-04T11:37:53;96232.03;;;7.17;100.00
62634;BME280;48704;50.534;6.442;2024-02-04T11:40:21;96228.06;;;7.18;100.00
62634;BME280;48704;50.534;6.442;2024-02-04T11:42:48;96215.97;;;7.25;100.00
62634;BME280;48704;50.534;6.442;2024-02-04T11:45:14;96212.88;;;7.23;100.00
62634;BME280;48704;50.534;6.442;2024-02-04T11:47:40;96235.81;;;7.23;100.00
62634;BME280;48704;50.534;6.442;2024-02-04T11:50:06;96212.00;;;7.26;100.00
62634;BME280;48704;50.534;6.442;2024-02-04T11:52:32;96225.31;;;7.31;100.00
62634;BME280;48704;50.534;6.442;2024-02-04T11:54:57;96196.81;;;7.30;100.00
62634;BME280;48704;50.534;6.442;2024-02-04T11:57:23;96198.38;;;7.31;100.00
62634;BME280;48704;50.534;6.442;2024-02-04T11:59:49;96187.97;;;7.35;100.00
62634;BME280;48704;50.534;6.442;2024-02-04T12:02:16;96191.81;;;7.51;100.00
62634;BME280;48704;50.534;6.442;2024-02-04T12:04:44;96179.31;;;7.59;100.00
62634;BME280;48704;50.534;6.442;2024-02-04T12:07:10;96164.00;;;7.67;100.00
62634;BME280;48704;50.534;6.442;2024-02-04T12:09:35;96170.09;;;7.75;100.00
62634;BME280;48704;50.534;6.442;2024-02-04T12:12:02;96155.00;;;7.76;100.00
62634;BME280;48704;50.534;6.442;2024-02-04T12:14:28;96161.13;;;7.70;100.00
62634;BME280;48704;50.534;6.442;2024-02-04T12:16:55;96152.19;;;7.88;100.00
62634;BME280;48704;50.534;6.442;2024-02-04T12:19:21;96158.88;;;7.78;100.00
62634;BME280;48704;50.534;6.442;2024-02-04T12:21:46;96160.88;;;7.65;100.00
62634;BME280;48704;50.534;6.442;2024-02-04T12:24:12;96176.19;;;7.57;100.00
62634;BME280;48704;50.534;6.442;2024-02-04T12:26:38;96171.53;;;7.54;100.00
62634;BME280;48704;50.534;6.442;2024-02-04T12:29:04;96162.22;;;7.48;100.00
62634;BME280;48704;50.534;6.442;2024-02-04T12:31:30;96164.31;;;7.44;100.00
62634;BME280;48704;50.534;6.442;2024-02-04T12:33:58;96175.41;;;7.44;100.00
62634;BME280;48704;50.534;6.442;2024-02-04T12:36:29;96187.94;;;7.48;100.00
62634;BME280;48704;50.534;6.442;2024-02-04T12:38:58;96184.63;;;7.41;100.00
62634;BME280;48704;50.534;6.442;2024-02-04T12:41:26;96206.47;;;7.38;100.00
62634;BME280;48704;50.534;6.442;2024-02-04T12:43:55;96156.56;;;7.38;100.00
62634;BME280;48704;50.534;6.442;2024-02-04T12:46:22;96167.09;;;7.44;100.00
62634;BME280;48704;50.534;6.442;2024-02-04T12:48:51;96156.78;;;7.44;100.00
62634;BME280;48704;50.534;6.442;2024-02-04T12:51:28;96159.78;;;7.50;100.00
62634;BME280;48704;50.534;6.442;2024-02-04T12:54:04;96153.81;;;7.38;100.00
62634;BME280;48704;50.534;6.442;2024-02-04T12:59:22;96169.44;;;7.32;100.00
62634;BME280;48704;50.534;6.442;2024-02-04T13:01:52;96162.56;;;7.37;100.00
62634;BME280;48704;50.534;6.442;2024-02-04T13:04:17;96159.56;;;7.31;100.00
62634;BME280;48704;50.534;6.442;2024-02-04T13:06:43;96154.69;;;7.35;100.00